createdAt,value
2018-08-03T00:00:04.455Z,55.42
2018-08-03T00:01:04.895Z,51.51
2018-08-03T00:02:04.833Z,52.25
2018-08-03T00:03:05.005Z,49.32
2018-08-03T00:04:05.188Z,51.76
2018-08-03T00:05:05.383Z,60.79
2018-08-03T00:06:05.571Z,49.07
2018-08-03T00:07:05.750Z,49.56
2018-08-03T00:08:05.932Z,51.51
2018-08-03T00:09:06.120Z,56.40
2018-08-03T00:10:06.317Z,47.85
2018-08-03T00:11:06.489Z,49.07
2018-08-03T00:12:06.661Z,49.07
2018-08-03T00:13:06.861Z,51.51
2018-08-03T00:14:07.035Z,53.96
2018-08-03T00:15:07.231Z,48.58
2018-08-03T00:16:07.403Z,50.54
2018-08-03T00:17:07.589Z,50.29
2018-08-03T00:18:07.760Z,49.56
2018-08-03T00:19:07.947Z,62.50
2018-08-03T00:20:08.148Z,60.06
2018-08-03T00:21:08.330Z,58.35
2018-08-03T00:22:08.519Z,58.35
2018-08-03T00:23:08.737Z,63.23
2018-08-03T00:24:08.888Z,49.07
2018-08-03T00:25:09.064Z,48.10
2018-08-03T00:26:09.254Z,49.32
2018-08-03T00:27:09.422Z,51.27
2018-08-03T00:28:09.609Z,51.03
2018-08-03T00:29:09.785Z,63.48
2018-08-03T00:30:09.957Z,49.56
2018-08-03T00:31:10.168Z,49.80
2018-08-03T00:32:10.367Z,48.83
2018-08-03T00:33:10.531Z,45.90
2018-08-03T00:34:10.711Z,46.88
2018-08-03T00:35:10.910Z,50.05
2018-08-03T00:36:11.078Z,50.05
2018-08-03T00:37:11.246Z,58.84
2018-08-03T00:38:11.449Z,46.63
2018-08-03T00:39:11.624Z,62.26
2018-08-03T00:40:11.808Z,51.76
2018-08-03T00:41:11.998Z,56.64
2018-08-03T00:42:12.182Z,52.25
2018-08-03T00:43:12.353Z,51.27
2018-08-03T00:44:12.551Z,62.50
2018-08-03T00:45:13.377Z,56.40
2018-08-03T00:46:12.905Z,49.32
2018-08-03T00:47:13.879Z,51.51
2018-08-03T00:48:13.267Z,48.83
2018-08-03T00:49:13.476Z,56.40
2018-08-03T00:50:13.676Z,55.66
2018-08-03T00:51:13.859Z,50.05
2018-08-03T00:52:14.045Z,51.27
2018-08-03T00:53:14.231Z,49.56
2018-08-03T00:54:14.419Z,46.14
2018-08-03T00:55:14.605Z,46.14
2018-08-03T00:57:14.967Z,57.62
2018-08-03T00:58:15.154Z,55.91
2018-08-03T00:59:15.340Z,52.25
2018-08-03T01:00:15.520Z,49.80
2018-08-03T01:01:15.723Z,55.66
2018-08-03T01:02:15.893Z,54.69
2018-08-03T01:03:16.079Z,52.25
2018-08-03T01:04:16.266Z,48.58
2018-08-03T01:05:16.438Z,53.22
2018-08-03T01:06:16.623Z,50.29
2018-08-03T01:07:16.802Z,47.12
2018-08-03T01:08:16.990Z,62.50
2018-08-03T01:09:17.179Z,52.00
2018-08-03T01:10:17.677Z,53.71
2018-08-03T01:11:17.558Z,50.54
2018-08-03T01:12:17.749Z,61.28
2018-08-03T01:13:17.915Z,53.71
2018-08-03T01:14:18.088Z,59.81
2018-08-03T01:15:18.279Z,55.18
2018-08-03T01:16:18.453Z,51.03
2018-08-03T01:17:18.635Z,56.64
2018-08-03T01:18:18.819Z,52.25
2018-08-03T01:19:18.998Z,52.25
2018-08-03T01:20:19.188Z,47.36
2018-08-03T01:21:19.381Z,47.61
2018-08-03T01:22:19.550Z,56.64
2018-08-03T01:23:19.729Z,52.49
2018-08-03T01:24:19.913Z,54.20
2018-08-03T01:25:20.095Z,48.58
2018-08-03T01:26:20.281Z,50.78
2018-08-03T01:27:20.752Z,49.32
2018-08-03T01:28:20.644Z,54.20
2018-08-03T01:29:20.833Z,50.54
2018-08-03T01:30:21.294Z,60.30
2018-08-03T01:31:21.189Z,49.07
2018-08-03T01:32:21.373Z,53.22
2018-08-03T01:33:21.558Z,49.56
2018-08-03T01:34:21.744Z,63.23
2018-08-03T01:35:21.931Z,73.00
2018-08-03T01:36:22.122Z,49.32
2018-08-03T01:37:22.293Z,52.00
2018-08-03T01:38:22.481Z,49.32
2018-08-03T01:39:22.673Z,46.88
2018-08-03T01:40:22.848Z,50.29
2018-08-03T01:41:23.033Z,54.69
2018-08-03T01:42:23.222Z,51.51
2018-08-03T01:43:23.413Z,51.03
2018-08-03T01:44:23.585Z,54.44
2018-08-03T01:45:23.771Z,49.07
2018-08-03T01:46:23.949Z,54.44
2018-08-03T01:47:24.133Z,50.78
2018-08-03T01:48:24.318Z,58.11
2018-08-03T01:49:24.504Z,48.34
2018-08-03T01:50:24.687Z,54.44
2018-08-03T01:51:25.115Z,59.33
2018-08-03T01:52:25.055Z,59.33
2018-08-03T01:53:25.240Z,53.71
2018-08-03T01:54:25.423Z,48.58
2018-08-03T01:55:25.627Z,49.80
2018-08-03T01:56:25.782Z,50.54
2018-08-03T01:57:25.974Z,59.33
2018-08-03T01:58:26.144Z,49.56
2018-08-03T01:59:26.333Z,50.78
2018-08-03T02:00:26.516Z,50.54
2018-08-03T02:01:26.695Z,51.51
2018-08-03T02:02:26.879Z,49.80
2018-08-03T02:03:27.062Z,51.03
2018-08-03T02:04:27.247Z,47.85
2018-08-03T02:05:27.440Z,51.27
2018-08-03T02:06:27.609Z,50.78
2018-08-03T02:07:27.794Z,54.69
2018-08-03T02:08:27.978Z,48.83
2018-08-03T02:09:28.162Z,48.34
2018-08-03T02:10:28.343Z,53.71
2018-08-03T02:11:28.529Z,57.62
2018-08-03T02:12:28.716Z,54.44
2018-08-03T02:13:28.899Z,51.03
2018-08-03T02:14:29.078Z,73.00
2018-08-03T02:15:29.264Z,48.10
2018-08-03T02:16:29.447Z,50.54
2018-08-03T02:17:29.641Z,51.03
2018-08-03T02:18:29.827Z,50.05
2018-08-03T02:19:30.011Z,53.96
2018-08-03T02:20:30.192Z,45.90
2018-08-03T02:21:30.381Z,48.83
2018-08-03T02:22:30.562Z,51.03
2018-08-03T02:23:30.745Z,59.33
2018-08-03T02:24:30.924Z,50.29
2018-08-03T02:25:31.117Z,46.39
2018-08-03T02:26:31.295Z,47.12
2018-08-03T02:27:31.481Z,49.56
2018-08-03T02:28:31.664Z,48.83
2018-08-03T02:29:31.849Z,49.56
2018-08-03T02:30:32.036Z,59.33
2018-08-03T02:31:32.217Z,49.80
2018-08-03T02:32:32.398Z,48.10
2018-08-03T02:33:32.607Z,48.83
2018-08-03T02:34:32.764Z,50.05
2018-08-03T02:35:32.947Z,51.27
2018-08-03T02:36:33.132Z,58.35
2018-08-03T02:37:33.309Z,45.90
2018-08-03T02:38:33.499Z,52.73
2018-08-03T02:39:33.681Z,52.98
2018-08-03T02:40:33.858Z,55.91
2018-08-03T02:41:34.052Z,57.62
2018-08-03T02:42:34.221Z,63.72
2018-08-03T02:43:34.403Z,47.85
2018-08-03T02:44:34.593Z,53.47
2018-08-03T02:45:34.765Z,60.79
2018-08-03T02:46:34.953Z,59.57
2018-08-03T02:47:35.135Z,57.13
2018-08-03T02:48:35.317Z,45.90
2018-08-03T02:49:35.499Z,48.83
2018-08-03T02:50:35.685Z,61.52
2018-08-03T02:51:35.866Z,50.29
2018-08-03T02:52:36.048Z,50.54
2018-08-03T02:53:36.230Z,49.07
2018-08-03T02:54:36.418Z,54.69
2018-08-03T02:55:36.596Z,58.35
2018-08-03T02:56:36.778Z,55.42
2018-08-03T02:57:36.949Z,51.51
2018-08-03T02:58:37.130Z,52.73
2018-08-03T02:59:37.317Z,49.56
2018-08-03T03:00:37.509Z,61.77
2018-08-03T03:01:37.688Z,50.05
2018-08-03T03:02:37.872Z,51.51
2018-08-03T03:03:38.049Z,51.27
2018-08-03T03:04:38.231Z,48.58
2018-08-03T03:05:38.412Z,47.36
2018-08-03T03:06:38.596Z,51.03
2018-08-03T03:07:38.780Z,60.79
2018-08-03T03:08:38.960Z,50.54
2018-08-03T03:09:39.145Z,47.36
2018-08-03T03:10:39.324Z,53.71
2018-08-03T03:11:39.511Z,54.69
2018-08-03T03:12:39.688Z,51.76
2018-08-03T03:13:39.874Z,52.25
2018-08-03T03:14:40.095Z,53.47
2018-08-03T03:15:40.235Z,45.90
2018-08-03T03:16:40.414Z,48.34
2018-08-03T03:17:40.603Z,49.32
2018-08-03T03:18:40.792Z,49.80
2018-08-03T03:19:40.998Z,48.34
2018-08-03T03:20:41.393Z,52.98
2018-08-03T03:21:41.330Z,57.86
2018-08-03T03:22:41.512Z,51.03
2018-08-03T03:23:41.693Z,51.76
2018-08-03T03:24:41.881Z,54.93
2018-08-03T03:25:42.057Z,51.03
2018-08-03T03:26:42.239Z,49.80
2018-08-03T03:27:42.418Z,50.29
2018-08-03T03:28:42.604Z,50.29
2018-08-03T03:29:42.785Z,55.66
2018-08-03T03:30:42.997Z,74.22
2018-08-03T03:31:43.143Z,52.25
2018-08-03T03:32:43.359Z,60.79
2018-08-03T03:33:43.505Z,51.27
2018-08-03T03:34:43.687Z,67.14
2018-08-03T03:35:43.866Z,59.57
2018-08-03T03:36:44.052Z,51.03
2018-08-03T03:37:44.227Z,66.41
2018-08-03T03:38:44.411Z,57.86
2018-08-03T03:39:44.594Z,58.35
2018-08-03T03:41:44.957Z,54.20
2018-08-03T03:42:45.145Z,50.29
2018-08-03T03:43:45.314Z,59.08
2018-08-03T03:44:45.506Z,49.56
2018-08-03T03:45:45.682Z,54.20
2018-08-03T03:46:45.869Z,60.06
2018-08-03T03:47:46.053Z,55.18
2018-08-03T03:48:46.234Z,64.70
2018-08-03T03:49:46.417Z,56.40
2018-08-03T03:50:46.610Z,59.57
2018-08-03T03:51:46.780Z,59.81
2018-08-03T03:52:46.978Z,59.08
2018-08-03T03:53:47.148Z,66.16
2018-08-03T03:54:47.334Z,63.72
2018-08-03T03:55:47.514Z,60.79
2018-08-03T03:56:47.700Z,65.43
2018-08-03T03:57:47.893Z,66.41
2018-08-03T03:58:48.078Z,62.74
2018-08-03T03:59:48.259Z,57.62
2018-08-03T04:00:48.444Z,66.65
2018-08-03T04:01:48.908Z,61.77
2018-08-03T04:02:48.813Z,63.23
2018-08-03T04:03:49.029Z,71.53
2018-08-03T04:04:49.180Z,60.06
2018-08-03T04:05:49.352Z,68.60
2018-08-03T04:06:49.535Z,61.28
2018-08-03T04:07:49.717Z,58.84
2018-08-03T04:08:49.901Z,72.27
2018-08-03T04:09:50.081Z,64.94
2018-08-03T04:10:50.274Z,58.59
2018-08-03T04:11:50.450Z,67.63
2018-08-03T04:12:50.625Z,63.48
2018-08-03T04:13:50.804Z,66.16
2018-08-03T04:14:50.998Z,60.79
2018-08-03T04:15:51.178Z,64.45
2018-08-03T04:16:51.356Z,59.33
2018-08-03T04:17:51.541Z,61.28
2018-08-03T04:18:51.719Z,56.64
2018-08-03T04:19:51.912Z,62.50
2018-08-03T04:20:52.085Z,60.06
2018-08-03T04:21:52.276Z,68.60
2018-08-03T04:22:52.460Z,64.45
2018-08-03T04:23:52.637Z,63.72
2018-08-03T04:24:52.812Z,63.48
2018-08-03T04:25:52.996Z,64.21
2018-08-03T04:26:53.186Z,58.84
2018-08-03T04:27:53.367Z,57.37
2018-08-03T04:28:53.552Z,58.59
2018-08-03T04:29:53.733Z,59.81
2018-08-03T04:30:53.915Z,64.21
2018-08-03T04:31:54.104Z,60.30
2018-08-03T04:32:54.279Z,59.33
2018-08-03T04:33:54.460Z,62.50
2018-08-03T04:34:54.642Z,59.33
2018-08-03T04:35:54.836Z,58.59
2018-08-03T04:36:55.009Z,68.60
2018-08-03T04:37:55.189Z,58.59
2018-08-03T04:38:55.428Z,56.15
2018-08-03T04:39:55.560Z,54.44
2018-08-03T04:40:55.749Z,53.71
2018-08-03T04:41:55.930Z,61.52
2018-08-03T04:42:56.119Z,56.88
2018-08-03T04:43:56.298Z,63.48
2018-08-03T04:44:56.473Z,63.23
2018-08-03T04:45:56.665Z,63.48
2018-08-03T04:46:56.852Z,60.79
2018-08-03T04:47:57.025Z,65.19
2018-08-03T04:48:57.216Z,60.06
2018-08-03T04:49:57.401Z,65.43
2018-08-03T04:50:57.588Z,80.57
2018-08-03T04:51:57.769Z,78.86
2018-08-03T04:52:57.958Z,69.34
2018-08-03T04:53:58.144Z,65.67
2018-08-03T04:54:58.333Z,75.93
2018-08-03T04:55:58.512Z,77.39
2018-08-03T04:56:58.702Z,72.02
2018-08-03T04:57:58.891Z,59.08
2018-08-03T04:58:59.082Z,58.59
2018-08-03T04:59:59.299Z,67.63
2018-08-03T05:00:59.436Z,75.68
2018-08-03T05:01:59.679Z,74.95
2018-08-03T05:02:59.817Z,76.17
2018-08-03T05:04:00.011Z,75.44
2018-08-03T05:05:00.194Z,76.90
2018-08-03T05:06:00.383Z,77.15
2018-08-03T05:07:00.581Z,61.28
2018-08-03T05:08:00.763Z,62.99
2018-08-03T05:09:00.953Z,76.66
2018-08-03T05:10:01.141Z,69.09
2018-08-03T05:11:01.364Z,62.50
2018-08-03T05:12:01.516Z,62.99
2018-08-03T05:13:01.683Z,64.21
2018-08-03T05:14:01.864Z,58.59
2018-08-03T05:15:02.063Z,69.82
2018-08-03T05:16:02.240Z,61.28
2018-08-03T05:17:02.428Z,66.89
2018-08-03T05:18:02.611Z,68.12
2018-08-03T05:19:02.816Z,66.89
2018-08-03T05:20:03.010Z,67.63
2018-08-03T05:21:03.159Z,67.38
2018-08-03T05:22:03.343Z,79.10
2018-08-03T05:23:03.558Z,62.50
2018-08-03T05:24:03.710Z,63.96
2018-08-03T05:25:03.889Z,73.49
2018-08-03T05:26:04.091Z,76.90
2018-08-03T05:27:04.258Z,64.21
2018-08-03T05:28:04.455Z,65.67
2018-08-03T05:29:04.614Z,71.04
2018-08-03T05:30:04.798Z,65.67
2018-08-03T05:31:05.238Z,66.65
2018-08-03T05:32:05.174Z,63.23
2018-08-03T05:33:05.380Z,64.21
2018-08-03T05:34:05.567Z,73.73
2018-08-03T05:35:05.754Z,60.55
2018-08-03T05:36:06.136Z,70.07
2018-08-03T05:37:06.135Z,81.30
2018-08-03T05:38:06.325Z,69.09
2018-08-03T05:39:06.517Z,68.85
2018-08-03T05:40:06.704Z,90.33
2018-08-03T05:41:06.903Z,87.89
2018-08-03T05:42:07.140Z,90.09
2018-08-03T05:43:07.265Z,66.89
2018-08-03T05:44:07.456Z,66.89
2018-08-03T05:45:07.646Z,65.92
2018-08-03T05:46:07.822Z,89.36
2018-08-03T05:47:08.033Z,65.67
2018-08-03T05:48:08.218Z,68.12
2018-08-03T05:49:08.403Z,73.49
2018-08-03T05:50:08.621Z,80.81
2018-08-03T05:51:08.783Z,62.01
2018-08-03T05:52:09.216Z,63.72
2018-08-03T05:53:09.205Z,65.19
2018-08-03T05:54:09.325Z,64.21
2018-08-03T05:55:09.655Z,65.92
2018-08-03T05:56:09.681Z,62.99
2018-08-03T05:57:09.856Z,70.07
2018-08-03T05:58:10.045Z,72.51
2018-08-03T05:59:10.268Z,69.09
2018-08-03T06:00:10.422Z,66.16
2018-08-03T06:01:10.599Z,64.21
2018-08-03T06:02:10.787Z,61.77
2018-08-03T06:03:10.981Z,78.37
2018-08-03T06:04:11.171Z,79.10
2018-08-03T06:05:11.357Z,79.10
2018-08-03T06:06:11.573Z,68.36
2018-08-03T06:07:11.759Z,63.48
2018-08-03T06:08:11.932Z,63.72
2018-08-03T06:09:12.101Z,70.31
2018-08-03T06:10:12.268Z,62.74
2018-08-03T06:11:12.457Z,62.01
2018-08-03T06:12:12.681Z,62.50
2018-08-03T06:13:12.856Z,61.28
2018-08-03T06:14:13.041Z,61.28
2018-08-03T06:15:13.224Z,63.48
2018-08-03T06:16:13.400Z,61.28
2018-08-03T06:17:13.584Z,78.86
2018-08-03T06:18:13.774Z,73.00
2018-08-03T06:19:13.967Z,58.35
2018-08-03T06:20:14.160Z,61.77
2018-08-03T06:21:14.346Z,61.77
2018-08-03T06:22:14.526Z,57.62
2018-08-03T06:23:14.693Z,64.94
2018-08-03T06:24:14.871Z,60.06
2018-08-03T06:25:15.045Z,63.23
2018-08-03T06:26:15.234Z,60.06
2018-08-03T06:27:15.448Z,58.35
2018-08-03T06:28:15.642Z,65.67
2018-08-03T06:29:15.812Z,60.79
2018-08-03T06:30:15.981Z,59.57
2018-08-03T06:31:16.175Z,61.04
2018-08-03T06:32:16.354Z,70.56
2018-08-03T06:33:16.577Z,62.01
2018-08-03T06:34:16.755Z,62.01
2018-08-03T06:35:16.983Z,60.79
2018-08-03T06:36:17.123Z,65.19
2018-08-03T06:37:17.312Z,58.84
2018-08-03T06:38:17.542Z,62.01
2018-08-03T06:39:17.666Z,62.74
2018-08-03T06:40:17.858Z,63.96
2018-08-03T06:41:18.063Z,64.21
2018-08-03T06:42:18.219Z,61.28
2018-08-03T06:43:18.396Z,63.72
2018-08-03T06:44:18.590Z,57.13
2018-08-03T06:45:18.781Z,60.30
2018-08-03T06:46:18.932Z,58.35
2018-08-03T06:47:19.363Z,58.84
2018-08-03T06:48:20.088Z,60.55
2018-08-03T06:49:19.495Z,60.79
2018-08-03T06:50:19.655Z,61.52
2018-08-03T06:51:19.841Z,67.63
2018-08-03T06:52:20.027Z,64.21
2018-08-03T06:53:20.223Z,65.19
2018-08-03T06:54:20.661Z,62.99
2018-08-03T06:55:20.612Z,63.72
2018-08-03T06:56:20.807Z,59.81
2018-08-03T06:57:21.015Z,60.79
2018-08-03T06:58:21.187Z,59.08
2018-08-03T06:59:21.382Z,58.11
2018-08-03T07:00:21.576Z,61.52
2018-08-03T07:01:21.787Z,60.30
2018-08-03T07:02:21.972Z,58.11
2018-08-03T07:03:22.164Z,61.52
2018-08-03T07:04:22.392Z,62.01
2018-08-03T07:05:22.549Z,59.57
2018-08-03T07:06:22.741Z,60.30
2018-08-03T07:07:22.926Z,61.04
2018-08-03T07:08:23.134Z,61.04
2018-08-03T07:09:23.286Z,59.81
2018-08-03T07:10:23.475Z,57.37
2018-08-03T07:11:23.670Z,68.85
2018-08-03T07:12:23.861Z,60.55
2018-08-03T07:13:24.056Z,59.81
2018-08-03T07:14:24.274Z,58.35
2018-08-03T07:15:24.451Z,59.33
2018-08-03T07:16:24.637Z,58.84
2018-08-03T07:17:24.822Z,58.11
2018-08-03T07:18:25.004Z,74.71
2018-08-03T07:19:25.227Z,62.01
2018-08-03T07:20:25.504Z,63.72
2018-08-03T07:21:25.589Z,58.11
2018-08-03T07:22:25.776Z,62.50
2018-08-03T07:23:25.971Z,59.57
2018-08-03T07:24:26.172Z,63.23
2018-08-03T07:25:26.344Z,63.96
2018-08-03T07:26:26.596Z,58.84
2018-08-03T07:27:26.732Z,66.41
2018-08-03T07:28:26.925Z,61.28
2018-08-03T07:29:27.127Z,61.77
2018-08-03T07:30:27.298Z,63.72
2018-08-03T07:31:27.533Z,60.55
2018-08-03T07:32:27.685Z,60.06
2018-08-03T07:33:27.863Z,70.56
2018-08-03T07:34:28.063Z,59.08
2018-08-03T07:35:28.251Z,66.41
2018-08-03T07:36:28.450Z,59.57
2018-08-03T07:37:28.675Z,61.52
2018-08-03T07:38:28.830Z,61.28
2018-08-03T07:39:29.016Z,62.99
2018-08-03T07:40:29.207Z,69.58
2018-08-03T07:41:29.418Z,62.99
2018-08-03T07:42:29.579Z,61.04
2018-08-03T07:43:29.792Z,57.86
2018-08-03T07:44:29.975Z,59.81
2018-08-03T07:45:30.124Z,60.06
2018-08-03T07:46:30.321Z,61.52
2018-08-03T07:47:30.478Z,64.70
2018-08-03T07:48:30.684Z,61.04
2018-08-03T07:49:30.841Z,77.15
2018-08-03T07:50:31.261Z,72.02
2018-08-03T07:51:31.203Z,63.72
2018-08-03T07:52:31.441Z,56.64
2018-08-03T07:53:31.579Z,59.81
2018-08-03T07:54:31.771Z,62.01
2018-08-03T07:55:32.031Z,59.57
2018-08-03T07:56:32.158Z,61.04
2018-08-03T07:57:32.597Z,61.77
2018-08-03T07:58:32.541Z,58.84
2018-08-03T07:59:32.722Z,59.33
2018-08-03T08:00:32.907Z,61.04
2018-08-03T08:01:33.082Z,57.37
2018-08-03T08:02:33.263Z,60.30
2018-08-03T08:03:33.453Z,62.50
2018-08-03T08:04:33.894Z,59.57
2018-08-03T08:05:33.849Z,65.67
2018-08-03T08:06:34.048Z,68.85
2018-08-03T08:07:34.224Z,61.04
2018-08-03T08:08:34.429Z,62.26
2018-08-03T08:09:34.600Z,58.35
2018-08-03T08:10:34.758Z,57.86
2018-08-03T08:11:34.980Z,60.30
2018-08-03T08:12:35.144Z,62.99
2018-08-03T08:13:35.331Z,60.55
2018-08-03T08:14:35.493Z,63.23
2018-08-03T08:15:35.703Z,61.52
2018-08-03T08:16:35.852Z,61.52
2018-08-03T08:17:36.062Z,63.23
2018-08-03T08:18:36.214Z,63.96
2018-08-03T08:19:36.385Z,62.74
2018-08-03T08:20:36.600Z,61.28
2018-08-03T08:21:36.813Z,61.28
2018-08-03T08:22:37.000Z,59.81
2018-08-03T08:23:37.188Z,59.81
2018-08-03T08:24:37.361Z,56.15
2018-08-03T08:25:37.565Z,61.04
2018-08-03T08:26:37.736Z,61.77
2018-08-03T08:27:37.942Z,57.37
2018-08-03T08:28:38.087Z,62.01
2018-08-03T08:29:38.291Z,59.57
2018-08-03T08:30:38.474Z,61.28
2018-08-03T08:31:38.746Z,61.04
2018-08-03T08:32:38.854Z,58.59
2018-08-03T08:33:39.044Z,61.52
2018-08-03T08:34:39.232Z,60.06
2018-08-03T08:35:39.431Z,62.01
2018-08-03T08:36:39.588Z,64.21
2018-08-03T08:37:39.800Z,60.06
2018-08-03T08:38:39.984Z,71.29
2018-08-03T08:39:40.171Z,61.77
2018-08-03T08:40:40.358Z,63.72
2018-08-03T08:41:40.532Z,65.43
2018-08-03T08:42:40.747Z,60.06
2018-08-03T08:43:40.952Z,62.01
2018-08-03T08:44:41.084Z,61.77
2018-08-03T08:45:41.262Z,62.26
2018-08-03T08:46:41.442Z,60.06
2018-08-03T08:47:41.635Z,66.16
2018-08-03T08:48:41.858Z,62.50
2018-08-03T08:49:41.994Z,60.30
2018-08-03T08:50:42.181Z,62.01
2018-08-03T08:51:42.388Z,61.28
2018-08-03T08:52:42.548Z,63.23
2018-08-03T08:53:42.797Z,67.14
2018-08-03T08:54:42.997Z,64.21
2018-08-03T08:55:43.174Z,77.88
2018-08-03T08:56:43.611Z,76.17
2018-08-03T08:57:43.563Z,72.02
2018-08-03T08:58:43.726Z,61.77
2018-08-03T08:59:44.000Z,61.28
2018-08-03T09:00:44.148Z,61.52
2018-08-03T09:01:44.330Z,57.62
2018-08-03T09:02:44.447Z,60.30
2018-08-03T09:03:44.648Z,62.01
2018-08-03T09:04:44.830Z,63.23
2018-08-03T09:05:45.004Z,69.09
2018-08-03T09:07:45.416Z,70.56
2018-08-03T09:08:45.560Z,66.89
2018-08-03T09:09:45.777Z,63.72
2018-08-03T09:10:45.949Z,63.48
2018-08-03T09:11:46.132Z,61.28
2018-08-03T09:12:46.370Z,62.01
2018-08-03T09:13:46.549Z,63.48
2018-08-03T09:14:46.729Z,63.23
2018-08-03T09:15:46.878Z,65.19
2018-08-03T09:16:47.065Z,71.29
2018-08-03T09:17:47.361Z,62.99
2018-08-03T09:18:47.569Z,63.96
2018-08-03T09:19:47.643Z,60.55
2018-08-03T09:20:47.838Z,62.50
2018-08-03T09:21:48.023Z,61.04
2018-08-03T09:22:48.183Z,61.04
2018-08-03T09:23:48.399Z,56.15
2018-08-03T09:24:48.573Z,57.13
2018-08-03T09:25:48.759Z,64.21
2018-08-03T09:26:48.959Z,61.77
2018-08-03T09:28:49.345Z,58.35
2018-08-03T09:29:49.521Z,60.79
2018-08-03T09:30:49.796Z,59.57
2018-08-03T09:31:49.891Z,59.81
2018-08-03T09:32:50.089Z,61.28
2018-08-03T09:33:50.262Z,58.11
2018-08-03T09:34:50.479Z,63.72
2018-08-03T09:35:50.620Z,65.19
2018-08-03T09:36:50.818Z,64.45
2018-08-03T09:37:51.001Z,62.50
2018-08-03T09:38:51.195Z,61.77
2018-08-03T09:39:51.364Z,59.08
2018-08-03T09:40:51.555Z,61.04
2018-08-03T09:41:51.779Z,58.11
2018-08-03T09:42:52.041Z,58.11
2018-08-03T09:43:52.145Z,63.72
2018-08-03T09:44:52.321Z,64.70
2018-08-03T09:45:52.494Z,65.19
2018-08-03T09:46:52.702Z,60.55
2018-08-03T09:47:52.887Z,59.81
2018-08-03T09:48:53.015Z,73.00
2018-08-03T09:49:53.200Z,68.12
2018-08-03T09:50:53.399Z,60.30
2018-08-03T09:51:53.588Z,76.66
2018-08-03T09:52:53.822Z,61.04
2018-08-03T09:53:53.910Z,62.50
2018-08-03T09:54:54.114Z,60.55
2018-08-03T09:55:54.315Z,65.92
2018-08-03T09:56:54.492Z,58.59
2018-08-03T09:57:54.675Z,60.06
2018-08-03T09:59:55.073Z,79.10
2018-08-03T10:00:55.260Z,76.66
2018-08-03T10:01:55.437Z,88.13
2018-08-03T10:02:55.605Z,76.17
2018-08-03T10:03:55.794Z,76.17
2018-08-03T10:04:55.948Z,82.03
2018-08-03T10:05:56.136Z,84.96
2018-08-03T10:06:56.331Z,80.32
2018-08-03T10:07:56.515Z,77.15
2018-08-03T10:08:56.690Z,93.99
2018-08-03T10:09:56.920Z,67.63
2018-08-03T10:10:57.105Z,73.24
2018-08-03T10:11:57.314Z,68.12
2018-08-03T10:12:57.478Z,93.02
2018-08-03T10:13:57.662Z,84.72
2018-08-03T10:14:57.849Z,69.82
2018-08-03T10:15:58.060Z,63.23
2018-08-03T10:16:58.207Z,66.41
2018-08-03T10:17:58.381Z,79.83
2018-08-03T10:18:58.573Z,92.29
2018-08-03T10:19:58.778Z,58.35
2018-08-03T10:20:58.945Z,70.07
2018-08-03T10:21:59.132Z,70.31
2018-08-03T10:22:59.697Z,62.99
2018-08-03T10:23:59.517Z,63.96
2018-08-03T10:24:59.704Z,65.43
2018-08-03T10:25:59.889Z,61.77
2018-08-03T10:27:00.064Z,75.68
2018-08-03T10:28:00.259Z,73.00
2018-08-03T10:29:00.439Z,62.01
2018-08-03T10:30:00.611Z,62.99
2018-08-03T10:31:00.792Z,71.29
2018-08-03T10:32:00.989Z,76.66
2018-08-03T10:33:01.183Z,63.48
2018-08-03T10:34:01.343Z,63.23
2018-08-03T10:35:01.553Z,63.72
2018-08-03T10:36:01.720Z,82.03
2018-08-03T10:37:01.921Z,64.94
2018-08-03T10:38:02.107Z,62.50
2018-08-03T10:39:02.297Z,63.48
2018-08-03T10:40:02.495Z,73.49
2018-08-03T10:41:02.695Z,62.50
2018-08-03T10:42:02.869Z,62.50
2018-08-03T10:43:03.064Z,69.34
2018-08-03T10:44:03.226Z,66.16
2018-08-03T10:45:03.410Z,64.94
2018-08-03T10:46:03.595Z,64.45
2018-08-03T10:47:03.809Z,60.79
2018-08-03T10:48:03.970Z,65.19
2018-08-03T10:49:04.144Z,63.23
2018-08-03T10:50:04.334Z,73.24
2018-08-03T10:51:04.502Z,77.88
2018-08-03T10:52:04.693Z,79.59
2018-08-03T10:53:04.892Z,78.13
2018-08-03T10:54:05.308Z,79.59
2018-08-03T10:55:05.249Z,81.54
2018-08-03T10:56:05.423Z,79.35
2018-08-03T10:57:05.616Z,81.54
2018-08-03T10:58:05.798Z,79.10
2018-08-03T10:59:05.975Z,81.79
2018-08-03T11:00:06.177Z,80.81
2018-08-03T11:01:06.363Z,74.22
2018-08-03T11:02:06.536Z,63.72
2018-08-03T11:03:06.716Z,66.89
2018-08-03T11:04:06.912Z,65.67
2018-08-03T11:05:07.114Z,58.84
2018-08-03T11:06:07.302Z,61.28
2018-08-03T11:07:07.493Z,66.41
2018-08-03T11:08:07.660Z,73.24
2018-08-03T11:09:07.847Z,61.28
2018-08-03T11:10:08.021Z,66.65
2018-08-03T11:11:08.216Z,76.42
2018-08-03T11:12:08.420Z,60.55
2018-08-03T11:13:08.603Z,61.04
2018-08-03T11:14:08.792Z,65.92
2018-08-03T11:15:08.987Z,65.19
2018-08-03T11:16:09.164Z,67.87
2018-08-03T11:17:09.361Z,66.16
2018-08-03T11:18:09.529Z,71.53
2018-08-03T11:19:09.736Z,73.49
2018-08-03T11:20:09.917Z,63.48
2018-08-03T11:21:10.110Z,71.04
2018-08-03T11:22:10.303Z,62.01
2018-08-03T11:23:10.483Z,63.48
2018-08-03T11:24:10.716Z,61.52
2018-08-03T11:25:10.872Z,59.81
2018-08-03T11:26:11.061Z,73.49
2018-08-03T11:27:11.252Z,65.92
2018-08-03T11:28:11.454Z,64.45
2018-08-03T11:29:11.637Z,78.13
2018-08-03T11:30:11.830Z,88.38
2018-08-03T11:31:12.008Z,64.94
2018-08-03T11:32:12.211Z,64.94
2018-08-03T11:33:12.381Z,64.70
2018-08-03T11:34:12.584Z,60.06
2018-08-03T11:35:12.786Z,64.70
2018-08-03T11:36:13.233Z,59.08
2018-08-03T11:37:13.131Z,59.33
2018-08-03T11:38:13.345Z,65.67
2018-08-03T11:39:13.534Z,64.45
2018-08-03T11:40:13.743Z,61.52
2018-08-03T11:41:13.905Z,73.24
2018-08-03T11:42:14.101Z,81.30
2018-08-03T11:43:14.289Z,88.38
2018-08-03T11:44:14.479Z,70.31
2018-08-03T11:45:14.670Z,63.48
2018-08-03T11:46:14.880Z,74.22
2018-08-03T11:47:15.067Z,56.88
2018-08-03T11:48:15.283Z,57.37
2018-08-03T11:49:15.437Z,63.72
2018-08-03T11:50:15.637Z,60.55
2018-08-03T11:51:15.840Z,61.77
2018-08-03T11:52:16.009Z,62.01
2018-08-03T11:53:16.199Z,60.30
2018-08-03T11:54:16.389Z,67.87
2018-08-03T11:55:16.596Z,77.88
2018-08-03T11:56:16.775Z,62.26
2018-08-03T11:57:16.978Z,65.43
2018-08-03T11:58:17.155Z,63.72
2018-08-03T11:59:17.350Z,61.04
2018-08-03T12:00:17.519Z,60.55
2018-08-03T12:01:17.725Z,74.71
2018-08-03T12:02:17.927Z,72.02
2018-08-03T12:03:18.107Z,80.08
2018-08-03T12:04:18.296Z,89.36
2018-08-03T12:05:18.482Z,59.33
2018-08-03T12:06:18.678Z,69.09
2018-08-03T12:07:18.875Z,66.16
2018-08-03T12:08:19.066Z,54.20
2018-08-03T12:09:19.255Z,58.84
2018-08-03T12:10:19.441Z,62.01
2018-08-03T12:11:19.633Z,62.01
2018-08-03T12:12:19.871Z,62.01
2018-08-03T12:13:20.022Z,55.18
2018-08-03T12:14:20.205Z,55.42
2018-08-03T12:15:20.384Z,62.50
2018-08-03T12:16:20.581Z,66.89
2018-08-03T12:17:20.785Z,63.48
2018-08-03T12:18:21.200Z,58.35
2018-08-03T12:20:21.343Z,69.58
2018-08-03T12:21:21.529Z,69.34
2018-08-03T12:22:21.725Z,57.86
2018-08-03T12:23:21.930Z,66.16
2018-08-03T12:24:22.099Z,64.21
2018-08-03T12:25:22.287Z,60.06
2018-08-03T12:26:22.476Z,65.19
2018-08-03T12:27:22.673Z,70.31
2018-08-03T12:28:22.871Z,63.23
2018-08-03T12:29:23.046Z,63.23
2018-08-03T12:30:23.298Z,62.50
2018-08-03T12:31:23.567Z,61.04
2018-08-03T12:32:23.615Z,60.55
2018-08-03T12:33:23.805Z,73.00
2018-08-03T12:34:24.006Z,62.01
2018-08-03T12:35:24.189Z,72.75
2018-08-03T12:36:24.385Z,57.13
2018-08-03T12:37:24.569Z,65.43
2018-08-03T12:38:24.770Z,61.28
2018-08-03T12:39:24.975Z,63.72
2018-08-03T12:40:25.158Z,54.44
2018-08-03T12:41:25.344Z,60.55
2018-08-03T12:42:25.561Z,60.79
2018-08-03T12:43:25.770Z,59.57
2018-08-03T12:44:25.916Z,60.06
2018-08-03T12:45:33.835Z,64.94
2018-08-03T12:46:26.293Z,65.67
2018-08-03T12:47:26.479Z,80.08
2018-08-03T12:48:26.683Z,63.96
2018-08-03T12:49:27.676Z,70.80
2018-08-03T12:50:27.689Z,65.43
2018-08-03T12:51:27.269Z,73.00
2018-08-03T12:52:27.433Z,84.23
2018-08-03T12:53:27.614Z,75.20
2018-08-03T12:54:27.811Z,70.07
2018-08-03T12:55:28.006Z,68.60
2018-08-03T12:56:28.234Z,63.96
2018-08-03T12:57:28.388Z,88.13
2018-08-03T12:58:28.553Z,54.69
2018-08-03T12:59:28.784Z,61.52
2018-08-03T13:00:28.954Z,61.52